Time;durP1;ratioP1;P1;durP2;ratioP2;P2;SDS_P1;SDS_P2;PMS_P1;PMS_P2;Temp;Humidity;BMP_temperature;BMP_pressure;BME280_temperature;BME280_humidity;BME280_pressure;Samples;Min_cycle;Max_cycle;Signal;HPM_P1;HPM_P2
2024/01/09 00:02:10;;;;;;;7.70;3.35;;;;;;;-146.27;67.42;47029.50;5054044;28;20145;-79
2024/01/09 00:04:36;;;;;;;5.70;3.30;;;;;;;-146.27;66.85;46989.69;5071370;28;20109;-80
2024/01/09 00:07:01;;;;;;;7.68;3.60;;;;;;;-146.27;67.12;47009.59;5068112;28;20032;-80
2024/01/09 00:09:27;;;;;;;6.25;2.83;;;;;;;-146.27;67.22;46993.66;5064139;28;20059;-80
2024/01/09 00:11:52;;;;;;;3.97;2.53;;;;;;;-146.27;66.15;46979.72;5071019;28;20024;-78
2024/01/09 00:14:17;;;;;;;5.18;3.30;;;;;;;-146.27;66.01;46983.72;5065574;28;20107;-79
2024/01/09 00:16:44;;;;;;;5.05;2.90;;;;;;;-146.27;66.73;46981.72;5070608;28;20024;-80
2024/01/09 00:19:09;;;;;;;11.75;3.33;;;;;;;-146.27;66.07;46983.72;5049772;28;20528;-79
2024/01/09 00:21:35;;;;;;;5.53;3.40;;;;;;;-146.27;66.55;46985.72;5069684;28;20112;-77
2024/01/09 00:24:00;;;;;;;7.13;3.42;;;;;;;-146.27;66.61;47009.59;5063494;28;20028;-78
2024/01/09 00:26:26;;;;;;;6.25;3.22;;;;;;;-146.27;67.17;46977.75;5067954;28;20031;-78
2024/01/09 00:28:52;;;;;;;9.27;2.90;;;;;;;-146.27;67.27;46969.78;5057144;28;20032;-76
2024/01/09 00:31:18;;;;;;;5.45;2.97;;;;;;;-146.27;67.50;46961.81;5070291;28;20517;-77
2024/01/09 00:33:44;;;;;;;5.03;3.10;;;;;;;-146.27;67.69;46997.66;5067223;28;20484;-78
2024/01/09 00:36:09;;;;;;;8.40;3.00;;;;;;;-146.27;67.99;47019.56;5069440;28;20067;-78
2024/01/09 00:38:35;;;;;;;6.63;3.03;;;;;;;-146.27;67.78;46997.66;5069342;28;20024;-78
2024/01/09 00:41:00;;;;;;;6.78;3.00;;;;;;;-146.27;67.89;47001.63;5069327;28;20031;-78
2024/01/09 00:43:25;;;;;;;6.15;3.30;;;;;;;-146.27;68.48;46993.66;5072050;28;20445;-79
2024/01/09 00:45:51;;;;;;;6.07;3.65;;;;;;;-146.27;67.83;46971.78;5067073;28;20025;-77
2024/01/09 00:48:17;;;;;;;4.65;2.90;;;;;;;-146.27;67.95;47007.59;5054934;28;20123;-77
2024/01/09 00:50:43;;;;;;;5.15;2.97;;;;;;;-146.27;68.41;46977.75;5056804;28;20035;-78
2024/01/09 00:53:08;;;;;;;6.60;3.45;;;;;;;-146.27;68.42;46957.84;5063471;28;20092;-78
2024/01/09 00:55:33;;;;;;;7.30;2.72;;;;;;;-146.27;68.23;46979.72;5063012;28;20415;-78
2024/01/09 00:57:59;;;;;;;9.65;3.10;;;;;;;-146.27;68.50;46989.69;5055408;28;20021;-77
2024/01/09 01:00:24;;;;;;;5.30;2.83;;;;;;;-146.27;68.13;46977.75;5052636;28;20079;-77
2024/01/09 01:02:50;;;;;;;5.88;3.28;;;;;;;-146.27;68.11;46987.69;5070566;28;20379;-79
2024/01/09 01:05:15;;;;;;;7.32;3.55;;;;;;;-146.27;68.41;46967.78;5076225;28;20035;-76
2024/01/09 01:07:42;;;;;;;6.85;3.35;;;;;;;-146.27;69.02;46981.72;5068195;28;20107;-76
2024/01/09 01:10:11;;;;;;;4.97;3.17;;;;;;;-146.27;69.82;46969.78;5074706;28;20032;-76
2024/01/09 01:12:37;;;;;;;6.45;3.08;;;;;;;-146.27;68.84;46949.88;5069690;28;20111;-76
2024/01/09 01:15:02;;;;;;;6.90;3.63;;;;;;;-146.27;69.18;46973.75;5062669;28;20458;-77
2024/01/09 01:17:28;;;;;;;10.27;2.85;;;;;;;-146.27;69.22;46969.78;5060401;28;20068;-74
2024/01/09 01:19:57;;;;;;;7.10;3.58;;;;;;;-146.27;69.16;46983.72;5059836;28;20160;-76
2024/01/09 01:22:23;;;;;;;5.22;2.72;;;;;;;-146.27;68.93;46979.72;5063883;28;20111;-75
2024/01/09 01:24:48;;;;;;;6.18;3.85;;;;;;;-146.27;69.90;46991.69;5074775;28;20120;-76
2024/01/09 01:27:13;;;;;;;5.90;2.88;;;;;;;-146.27;69.66;46967.78;5076465;28;20024;-76
2024/01/09 01:29:39;;;;;;;5.10;2.72;;;;;;;-146.27;69.38;46973.75;5061477;28;20024;-76
2024/01/09 01:32:09;;;;;;;4.78;2.67;;;;;;;-146.27;68.65;46985.72;5066396;28;20028;-76
2024/01/09 01:34:34;;;;;;;6.70;2.67;;;;;;;-146.27;68.58;46973.75;5059847;28;20021;-74
2024/01/09 01:37:00;;;;;;;6.32;3.08;;;;;;;-146.27;68.72;46949.88;5065065;28;20031;-74
2024/01/09 01:39:25;;;;;;;7.10;3.05;;;;;;;-146.27;68.83;46999.66;5051599;28;20439;-74
2024/01/09 01:41:50;;;;;;;7.70;3.35;;;;;;;-146.27;68.19;47001.63;5051635;28;20118;-76
2024/01/09 01:44:17;;;;;;;5.50;2.80;;;;;;;-146.27;68.74;46957.84;5063894;28;20737;-76
2024/01/09 01:46:45;;;;;;;12.90;3.00;;;;;;;-146.27;68.27;46977.75;5050022;28;20036;-75
2024/01/09 01:49:14;;;;;;;5.70;3.03;;;;;;;-146.27;68.17;46989.69;5060409;28;20038;-75
2024/01/09 01:51:42;;;;;;;5.00;2.67;;;;;;;-146.27;67.97;46963.81;5065184;28;20031;-76
2024/01/09 01:54:07;;;;;;;7.10;2.90;;;;;;;-146.27;67.61;46965.78;5067476;28;20071;-74
2024/01/09 01:56:33;;;;;;;8.10;3.10;;;;;;;-146.27;67.71;46997.66;5068764;28;20044;-72
2024/01/09 01:58:59;;;;;;;4.38;3.05;;;;;;;-146.27;67.02;46969.78;5065393;28;20032;-74
2024/01/09 02:01:26;;;;;;;7.57;2.80;;;;;;;-146.27;67.25;46981.72;5061358;28;20052;-76
2024/01/09 02:03:52;;;;;;;5.10;2.25;;;;;;;-146.27;66.86;47003.63;5067887;28;20371;-74
2024/01/09 02:06:18;;;;;;;8.57;2.95;;;;;;;-146.27;66.66;46985.72;5078950;28;20032;-75
2024/01/09 02:08:44;;;;;;;6.82;2.65;;;;;;;-146.27;66.37;46961.81;5072787;28;20216;-74
2024/01/09 02:11:10;;;;;;;6.68;3.42;;;;;;;-146.27;65.90;47001.63;5053295;28;20036;-73
2024/01/09 02:13:35;;;;;;;8.25;2.85;;;;;;;-146.27;66.11;47017.56;5068010;28;20075;-73
2024/01/09 02:16:01;;;;;;;7.47;2.97;;;;;;;-146.27;66.22;46981.72;5056946;28;20024;-75
2024/01/09 02:18:27;;;;;;;5.90;3.50;;;;;;;-146.27;66.50;46981.72;5061344;28;20033;-75
2024/01/09 02:20:53;;;;;;;5.38;2.40;;;;;;;-146.27;67.28;46989.69;5051804;28;20053;-75
2024/01/09 02:23:18;;;;;;;4.60;3.05;;;;;;;-146.27;67.29;46999.66;5068222;28;20475;-74
2024/01/09 02:25:44;;;;;;;6.05;2.53;;;;;;;-146.27;67.87;47007.59;5074079;28;20050;-73
2024/01/09 02:28:23;;;;;;;4.60;2.75;;;;;;;-146.27;67.56;46985.72;5067521;28;20090;-74
2024/01/09 02:30:49;;;;;;;8.45;3.10;;;;;;;-146.27;66.94;46991.69;5060807;28;20735;-73
2024/01/09 02:33:15;;;;;;;6.10;2.47;;;;;;;-146.27;66.63;47009.59;5056164;28;20032;-74
2024/01/09 02:35:40;;;;;;;5.03;2.90;;;;;;;-146.27;66.42;46973.75;5066411;28;20021;-73
2024/01/09 02:38:06;;;;;;;6.82;2.72;;;;;;;-146.27;66.43;46963.81;5070156;28;20137;-73
2024/01/09 02:40:32;;;;;;;4.10;2.90;;;;;;;-146.27;66.81;46973.75;5064130;28;20029;-73
2024/01/09 02:42:57;;;;;;;4.63;2.50;;;;;;;-146.27;67.39;46969.78;5063935;28;20497;-74
2024/01/09 02:45:23;;;;;;;4.63;2.70;;;;;;;-146.27;67.25;46989.69;5069984;28;20028;-73
2024/01/09 02:47:48;;;;;;;5.43;2.97;;;;;;;-146.27;67.03;46973.75;5057828;28;20109;-72
2024/01/09 02:50:14;;;;;;;5.50;2.78;;;;;;;-146.27;68.33;47001.63;5064549;28;20029;-74
2024/01/09 02:52:39;;;;;;;4.22;2.88;;;;;;;-146.27;67.34;46981.72;5062564;28;20019;-73
2024/01/09 02:55:05;;;;;;;7.60;2.92;;;;;;;-146.27;67.78;46997.66;5063020;28;20120;-72
2024/01/09 02:57:30;;;;;;;5.28;2.88;;;;;;;-146.27;68.50;46971.78;5064206;28;20035;-71
2024/01/09 02:59:55;;;;;;;5.60;2.42;;;;;;;-146.27;68.21;46999.66;5070612;28;20036;-73
2024/01/09 03:02:21;;;;;;;6.07;3.05;;;;;;;-146.27;68.58;46953.84;5064876;28;20017;-73
2024/01/09 03:04:46;;;;;;;9.23;3.65;;;;;;;-146.27;68.93;46989.69;5074910;28;20110;-74
2024/01/09 03:07:11;;;;;;;7.20;3.13;;;;;;;-146.27;68.70;46995.66;5060193;28;20114;-76
2024/01/09 03:09:37;;;;;;;6.85;3.03;;;;;;;-146.27;68.37;46969.78;5066648;28;20384;-73
2024/01/09 03:12:03;;;;;;;5.07;2.70;;;;;;;-146.27;68.97;46977.75;5071379;28;20066;-73
2024/01/09 03:14:29;;;;;;;5.20;2.95;;;;;;;-146.27;69.23;47009.59;5068353;28;20039;-73
2024/01/09 03:16:54;;;;;;;5.90;2.80;;;;;;;-146.27;69.05;46969.78;5069715;28;20028;-72
2024/01/09 03:19:20;;;;;;;6.45;3.17;;;;;;;-146.27;68.77;46961.81;5057559;28;20104;-73
2024/01/09 03:21:45;;;;;;;6.68;2.97;;;;;;;-146.27;69.46;46961.81;5069982;28;20078;-72
2024/01/09 03:24:11;;;;;;;4.65;3.03;;;;;;;-146.27;68.80;46965.78;5061902;28;20540;-72
2024/01/09 03:26:36;;;;;;;5.35;3.45;;;;;;;-146.27;69.16;46975.75;5058312;28;20077;-72
2024/01/09 03:29:04;;;;;;;4.85;2.63;;;;;;;-146.27;69.64;46961.81;5067568;28;20052;-73
2024/01/09 03:31:29;;;;;;;6.80;3.05;;;;;;;-146.27;69.44;46965.78;5066887;28;20039;-72
2024/01/09 03:33:56;;;;;;;8.73;2.80;;;;;;;-146.27;69.99;46955.84;5059214;28;20025;-73
2024/01/09 03:36:23;;;;;;;8.00;3.42;;;;;;;-146.27;69.55;46949.88;5066735;28;20384;-73
2024/01/09 03:38:48;;;;;;;5.97;2.95;;;;;;;-146.27;69.82;46977.75;5059772;28;20492;-72
2024/01/09 03:41:14;;;;;;;5.50;2.65;;;;;;;-146.27;70.09;46985.72;5063350;28;20107;-73
2024/01/09 03:43:39;;;;;;;4.68;2.95;;;;;;;-146.27;70.07;46969.78;5061069;28;20033;-73
2024/01/09 03:46:04;;;;;;;7.80;3.40;;;;;;;-146.27;70.09;46985.72;5066229;28;20058;-72
2024/01/09 03:48:29;;;;;;;5.05;2.45;;;;;;;-146.27;70.13;46971.78;5069660;28;20043;-74
2024/01/09 03:50:55;;;;;;;5.97;3.72;;;;;;;-146.27;70.29;46943.91;5060846;28;20024;-72
2024/01/09 03:53:21;;;;;;;6.88;3.38;;;;;;;-146.27;69.73;46953.84;5063401;28;20091;-71
2024/01/09 03:55:46;;;;;;;6.93;3.55;;;;;;;-146.27;69.45;46985.72;5068740;28;20058;-71
2024/01/09 03:58:12;;;;;;;4.85;3.25;;;;;;;-146.27;69.46;46963.81;5081571;28;20028;-73
2024/01/09 04:00:40;;;;;;;6.03;2.83;;;;;;;-146.27;69.74;46953.84;5063039;28;20081;-72
2024/01/09 04:03:06;;;;;;;5.47;3.15;;;;;;;-146.27;69.57;46957.84;5067293;28;20025;-73
2024/01/09 04:05:32;;;;;;;8.50;2.83;;;;;;;-146.27;70.15;46985.72;5069319;28;20394;-72
2024/01/09 04:07:57;;;;;;;6.20;3.10;;;;;;;-146.27;69.74;46987.69;5065777;28;20036;-72
2024/01/09 04:10:22;;;;;;;9.55;2.88;;;;;;;-146.27;69.22;46969.78;5070519;28;20028;-72
2024/01/09 04:12:48;;;;;;;7.35;3.85;;;;;;;-146.27;70.15;46977.75;5067303;28;20373;-72
2024/01/09 04:15:13;;;;;;;7.60;2.97;;;;;;;-146.27;70.03;46953.84;5065571;28;20403;-71
2024/01/09 04:17:38;;;;;;;5.40;3.15;;;;;;;-146.27;69.92;46973.75;5063825;28;20404;-73
2024/01/09 04:20:05;;;;;;;4.97;2.67;;;;;;;-146.27;70.11;46971.78;5058735;28;20017;-71
2024/01/09 04:22:30;;;;;;;5.78;2.58;;;;;;;-146.27;69.90;46981.72;5060835;28;20117;-72
2024/01/09 04:24:56;;;;;;;4.68;3.13;;;;;;;-146.27;69.31;46957.84;5057466;28;20112;-71
2024/01/09 04:27:22;;;;;;;5.07;2.47;;;;;;;-146.27;69.49;46981.72;5067438;28;20056;-70
2024/01/09 04:29:48;;;;;;;6.00;2.83;;;;;;;-146.27;70.46;46949.88;5053179;28;20052;-71
2024/01/09 04:32:13;;;;;;;6.38;3.03;;;;;;;-146.27;70.19;46979.72;5066237;28;20025;-71
2024/01/09 04:34:38;;;;;;;7.50;3.75;;;;;;;-146.27;69.76;46961.81;5066056;28;20590;-73
2024/01/09 04:37:04;;;;;;;6.00;3.22;;;;;;;-146.27;70.18;46973.75;5062275;28;20116;-72
2024/01/09 04:39:30;;;;;;;8.02;3.20;;;;;;;-146.27;70.18;46969.78;5062120;28;20511;-71
2024/01/09 04:41:55;;;;;;;7.15;3.72;;;;;;;-146.27;69.99;46957.84;5063046;28;20077;-71
2024/01/09 04:44:21;;;;;;;6.47;3.35;;;;;;;-146.27;70.00;46967.78;5060695;28;20031;-73
2024/01/09 04:46:46;;;;;;;6.47;3.03;;;;;;;-146.27;69.79;46981.72;5060085;28;20148;-71
2024/01/09 04:49:11;;;;;;;4.88;2.83;;;;;;;-146.27;69.71;46985.72;5071005;28;20028;-72
2024/01/09 04:51:37;;;;;;;4.85;2.60;;;;;;;-146.27;69.79;46961.81;5066721;28;20021;-71
2024/01/09 04:54:02;;;;;;;6.13;3.42;;;;;;;-146.27;69.38;46975.75;5059050;28;20035;-71
2024/01/09 04:56:27;;;;;;;5.90;2.92;;;;;;;-146.27;69.33;46961.81;5068894;28;20502;-71
2024/01/09 04:58:53;;;;;;;6.85;3.05;;;;;;;-146.27;69.56;46957.84;5067473;28;20028;-71
2024/01/09 05:01:22;;;;;;;5.15;2.75;;;;;;;-146.27;69.98;46985.72;5067342;28;20075;-73
2024/01/09 05:03:48;;;;;;;7.97;3.33;;;;;;;-146.27;70.42;46989.69;5061152;28;20025;-71
2024/01/09 05:06:17;;;;;;;6.78;3.10;;;;;;;-146.27;69.67;46967.78;5064505;28;20040;-72
2024/01/09 05:08:44;;;;;;;6.68;3.08;;;;;;;-146.27;69.02;46949.88;5065004;28;20206;-70
2024/01/09 05:11:09;;;;;;;6.20;2.83;;;;;;;-146.27;69.32;46981.72;5068447;28;20028;-71
2024/01/09 05:13:35;;;;;;;8.23;3.67;;;;;;;-146.27;69.94;46993.66;5061617;28;20051;-70
2024/01/09 05:16:00;;;;;;;5.85;2.50;;;;;;;-146.27;69.43;46965.78;5068369;28;20036;-70
2024/01/09 05:18:26;;;;;;;5.00;2.88;;;;;;;-146.27;69.29;46989.69;5064012;28;20475;-70
2024/01/09 05:20:51;;;;;;;4.40;2.35;;;;;;;-146.27;69.74;46971.78;5060217;28;20269;-70
2024/01/09 05:23:16;;;;;;;6.07;3.08;;;;;;;-146.27;69.11;46973.75;5065649;28;20062;-74
2024/01/09 05:25:42;;;;;;;6.85;3.03;;;;;;;-146.27;69.12;46971.78;5057863;28;20111;-71
2024/01/09 05:28:08;;;;;;;7.63;3.38;;;;;;;-146.27;69.57;46975.75;5061906;28;20086;-69
2024/01/09 05:30:33;;;;;;;6.68;3.13;;;;;;;-146.27;69.38;46971.78;5065301;28;20032;-69
2024/01/09 05:32:58;;;;;;;4.00;2.47;;;;;;;-146.27;69.23;46985.72;5050667;28;20167;-68
2024/01/09 05:35:24;;;;;;;6.25;3.35;;;;;;;-146.27;69.65;46973.75;5062131;28;20086;-70
2024/01/09 05:37:49;;;;;;;6.18;3.13;;;;;;;-146.27;69.33;46973.75;5050193;28;20063;-72
2024/01/09 05:40:16;;;;;;;7.32;3.30;;;;;;;-146.27;69.60;46975.75;5061559;28;20128;-70
2024/01/09 05:42:43;;;;;;;6.82;2.85;;;;;;;-146.27;69.74;46975.75;5058421;28;20028;-69
2024/01/09 05:45:09;;;;;;;5.88;2.80;;;;;;;-146.27;69.59;46983.72;5067416;28;20059;-71
2024/01/09 05:47:34;;;;;;;5.70;2.70;;;;;;;-146.27;68.86;46961.81;5063527;28;20045;-70
2024/01/09 05:50:00;;;;;;;8.35;3.10;;;;;;;-146.27;69.01;46987.69;5057629;28;20035;-69
2024/01/09 05:52:25;;;;;;;4.45;2.83;;;;;;;-146.27;69.27;46981.72;5057590;28;20024;-71
2024/01/09 05:54:50;;;;;;;5.97;2.75;;;;;;;-146.27;68.53;46965.78;5065325;28;20082;-69
2024/01/09 05:57:16;;;;;;;5.85;2.65;;;;;;;-146.27;69.52;46995.66;5062334;28;20269;-71
2024/01/09 05:59:41;;;;;;;8.25;2.97;;;;;;;-146.27;68.91;46993.66;5067790;28;20031;-70
2024/01/09 06:02:07;;;;;;;7.95;3.00;;;;;;;-146.27;68.58;46969.78;5057918;28;20524;-70
2024/01/09 06:04:32;;;;;;;3.60;2.33;;;;;;;-146.27;68.71;46985.72;5063366;28;20389;-71
2024/01/09 06:06:57;;;;;;;4.07;2.45;;;;;;;-146.27;69.10;46985.72;5057742;28;20028;-70
2024/01/09 06:09:23;;;;;;;6.00;2.72;;;;;;;-146.27;69.40;46969.78;5065587;28;20020;-71
2024/01/09 06:11:48;;;;;;;4.53;2.38;;;;;;;-146.27;69.65;47011.59;5072608;28;20421;-70
2024/01/09 06:14:14;;;;;;;6.40;2.75;;;;;;;-146.27;68.97;46985.72;5058997;28;20047;-71
2024/01/09 06:16:39;;;;;;;6.90;2.45;;;;;;;-146.27;68.02;46989.69;5077683;28;20024;-69
2024/01/09 06:19:04;;;;;;;6.57;2.75;;;;;;;-146.27;68.51;46997.66;5070343;28;20119;-71
2024/01/09 06:21:30;;;;;;;4.00;2.47;;;;;;;-146.27;68.94;46997.66;5059787;28;20111;-70
2024/01/09 06:23:55;;;;;;;6.40;3.03;;;;;;;-146.27;68.91;46993.66;5059380;28;20032;-70
2024/01/09 06:26:20;;;;;;;7.15;2.85;;;;;;;-146.27;69.10;46997.66;5069932;28;20053;-71
2024/01/09 06:28:46;;;;;;;6.28;2.85;;;;;;;-146.27;68.41;46975.75;5071335;28;20028;-70
2024/01/09 06:31:13;;;;;;;4.97;2.88;;;;;;;-146.27;68.55;46975.75;5072771;28;20020;-69
2024/01/09 06:33:39;;;;;;;5.65;2.97;;;;;;;-146.27;68.11;46985.72;5068359;28;20031;-70
2024/01/09 06:36:05;;;;;;;12.63;2.92;;;;;;;-146.27;68.36;46989.69;5068791;28;20020;-70
2024/01/09 06:38:30;;;;;;;7.30;2.90;;;;;;;-146.27;68.14;46997.66;5062329;28;20090;-71
2024/01/09 06:40:55;;;;;;;6.10;2.97;;;;;;;-146.27;68.00;46993.66;5064144;28;20024;-68
2024/01/09 06:43:20;;;;;;;6.25;2.92;;;;;;;-146.27;68.15;47003.63;5072510;28;20062;-69
2024/01/09 06:45:46;;;;;;;7.78;2.80;;;;;;;-146.27;67.80;46995.66;5054542;28;20578;-69
2024/01/09 06:48:12;;;;;;;6.25;3.25;;;;;;;-146.27;67.70;47017.56;5072963;28;20524;-68
2024/01/09 06:50:37;;;;;;;7.10;2.83;;;;;;;-146.27;67.50;46981.72;5063549;28;20025;-68
2024/01/09 06:53:02;;;;;;;3.95;2.33;;;;;;;-146.27;67.55;46999.66;5053060;28;20381;-69
2024/01/09 06:55:28;;;;;;;6.28;3.33;;;;;;;-146.27;67.39;47015.56;5063817;28;20487;-73
2024/01/09 06:57:53;;;;;;;5.13;2.92;;;;;;;-146.27;66.95;47013.59;5058876;28;20147;-69
2024/01/09 07:00:19;;;;;;;5.88;3.15;;;;;;;-146.27;66.87;47009.59;5069843;28;20101;-69
2024/01/09 07:02:44;;;;;;;7.53;3.08;;;;;;;-146.27;66.89;47003.63;5067847;28;20107;-68
2024/01/09 07:05:10;;;;;;;6.95;2.80;;;;;;;-146.27;66.64;47041.47;5065018;28;20028;-68
2024/01/09 07:07:36;;;;;;;5.43;2.80;;;;;;;-146.27;66.89;47001.63;5067767;28;20078;-68
2024/01/09 07:10:01;;;;;;;6.07;2.70;;;;;;;-146.27;66.50;47045.44;5067876;28;20023;-68
2024/01/09 07:12:27;;;;;;;5.75;2.65;;;;;;;-146.27;66.66;47029.50;5062650;28;20120;-69
2024/01/09 07:14:53;;;;;;;5.72;2.70;;;;;;;-146.27;66.95;47029.50;5072329;28;20422;-70
2024/01/09 07:17:19;;;;;;;5.90;3.03;;;;;;;-146.27;66.79;47017.56;5069737;28;20107;-67
2024/01/09 07:19:44;;;;;;;3.85;2.33;;;;;;;-146.27;66.06;47025.53;5071005;28;20029;-71
2024/01/09 07:22:10;;;;;;;8.90;3.40;;;;;;;-146.27;66.23;47017.56;5064050;28;20120;-68
2024/01/09 07:24:36;;;;;;;7.10;3.30;;;;;;;-146.27;65.79;47065.34;5052428;28;20025;-68
2024/01/09 07:27:02;;;;;;;5.05;2.75;;;;;;;-146.27;66.18;47021.53;5052413;28;20055;-68
2024/01/09 07:29:27;;;;;;;3.90;2.53;;;;;;;-146.27;65.81;47021.53;5058271;28;20543;-70
2024/01/09 07:31:52;;;;;;;4.30;2.60;;;;;;;-146.27;66.20;47025.53;5052401;28;20020;-69
2024/01/09 07:34:18;;;;;;;7.60;2.72;;;;;;;-146.27;66.36;47031.50;5052065;28;20028;-70
2024/01/09 07:36:43;;;;;;;6.90;2.88;;;;;;;-146.27;66.17;47053.41;5052134;28;20094;-68
2024/01/09 07:39:09;;;;;;;5.85;3.20;;;;;;;-146.27;65.82;47029.50;5052011;28;20017;-68
2024/01/09 07:41:35;;;;;;;4.88;3.08;;;;;;;-146.27;66.03;47031.50;5052317;28;20173;-70
2024/01/09 07:44:02;;;;;;;6.40;2.72;;;;;;;-146.27;65.24;47057.38;5057487;28;20104;-69
2024/01/09 07:46:27;;;;;;;5.82;3.05;;;;;;;-146.27;65.34;47059.38;5051958;28;20484;-69
2024/01/09 07:48:53;;;;;;;6.50;2.75;;;;;;;-146.27;65.15;47047.44;5068830;28;20103;-70
2024/01/09 07:51:18;;;;;;;7.13;3.28;;;;;;;-146.27;64.51;47067.34;5071483;28;20028;-69
2024/01/09 07:53:43;;;;;;;5.90;2.75;;;;;;;-146.27;64.98;47053.41;5069416;28;20031;-70
2024/01/09 07:56:17;;;;;;;5.60;2.95;;;;;;;-146.27;64.73;47039.47;5071567;28;20021;-69
2024/01/09 07:58:43;;;;;;;6.57;2.80;;;;;;;-146.27;64.72;47101.19;5071859;28;20388;-71
2024/01/09 08:01:10;;;;;;;5.78;3.22;;;;;;;-146.27;64.79;47061.38;5071150;28;20067;-69
2024/01/09 08:03:35;;;;;;;5.80;2.92;;;;;;;-146.27;64.96;47093.22;5071421;28;20025;-70
2024/01/09 08:06:01;;;;;;;6.45;3.50;;;;;;;-146.27;64.82;47073.31;5058768;28;20024;-69
2024/01/09 08:08:26;;;;;;;4.22;2.55;;;;;;;-146.27;64.07;47097.19;5051204;28;20493;-69
2024/01/09 08:10:51;;;;;;;6.32;2.58;;;;;;;-146.27;63.86;47089.25;5061104;28;20301;-69
2024/01/09 08:13:17;;;;;;;6.82;3.10;;;;;;;-146.27;63.97;47111.16;5051377;28;20067;-71
2024/01/09 08:15:42;;;;;;;5.68;2.92;;;;;;;-146.27;64.68;47111.16;5051251;28;20021;-70
2024/01/09 08:18:07;;;;;;;6.35;2.78;;;;;;;-146.27;64.01;47101.19;5054038;28;20029;-69
2024/01/09 08:20:33;;;;;;;5.43;2.67;;;;;;;-146.27;63.98;47121.09;5071180;28;20024;-69
2024/01/09 08:22:58;;;;;;;5.05;3.33;;;;;;;-146.27;64.21;47125.09;5070807;28;20017;-70
2024/01/09 08:25:24;;;;;;;4.80;2.63;;;;;;;-146.27;64.29;47137.03;5064809;28;20055;-70
2024/01/09 08:27:49;;;;;;;6.85;3.05;;;;;;;-146.27;63.78;47141.00;5071070;28;20540;-69
2024/01/09 08:30:15;;;;;;;6.57;2.53;;;;;;;-146.27;63.18;47141.00;5070792;28;20028;-69
2024/01/09 08:32:40;;;;;;;7.55;3.28;;;;;;;-146.27;63.72;47137.03;5070688;28;20051;-70
2024/01/09 08:35:06;;;;;;;4.63;2.50;;;;;;;-146.27;63.26;47168.88;5068474;28;20089;-70
2024/01/09 08:37:32;;;;;;;5.30;2.90;;;;;;;-146.27;62.51;47180.84;5062208;28;20047;-72
2024/01/09 08:39:57;;;;;;;4.63;2.22;;;;;;;-146.27;62.67;47170.88;5059374;28;20032;-68
2024/01/09 08:42:23;;;;;;;6.45;2.40;;;;;;;-146.27;62.23;47170.88;5070858;28;20484;-70
2024/01/09 08:44:48;;;;;;;6.90;3.15;;;;;;;-146.27;61.91;47196.75;5070826;28;20059;-71
2024/01/09 08:47:13;;;;;;;5.75;2.88;;;;;;;-146.27;60.95;47184.81;5081004;28;20020;-69
2024/01/09 08:49:39;;;;;;;5.22;2.88;;;;;;;-146.27;61.23;47206.72;5090935;28;20031;-68
2024/01/09 08:52:05;;;;;;;5.20;2.60;;;;;;;-146.27;61.06;47170.88;5090244;28;20474;-68
2024/01/09 08:54:30;;;;;;;4.28;2.63;;;;;;;-146.27;61.43;47192.78;5084096;28;20024;-69
2024/01/09 08:56:56;;;;;;;3.58;2.13;;;;;;;-146.27;60.71;47210.69;5065270;28;20103;-68
2024/01/09 08:59:21;;;;;;;6.45;3.40;;;;;;;-146.27;60.52;47212.69;5080631;28;20029;-67
2024/01/09 09:01:46;;;;;;;5.05;2.25;;;;;;;-146.27;60.40;47204.72;5070200;28;20055;-69
2024/01/09 09:04:12;;;;;;;3.80;2.28;;;;;;;-146.27;60.51;47220.66;5070355;28;20400;-68
2024/01/09 09:06:37;;;;;;;8.32;3.28;;;;;;;-146.27;60.23;47212.69;5070731;28;20392;-69
2024/01/09 09:09:03;;;;;;;4.35;2.90;;;;;;;-146.27;59.65;47212.69;5070375;28;20495;-68
2024/01/09 09:11:29;;;;;;;4.50;2.45;;;;;;;-146.27;58.73;47216.66;5068721;28;20120;-68
2024/01/09 09:13:54;;;;;;;3.65;2.40;;;;;;;-146.27;57.46;47222.66;5067944;28;20115;-67
2024/01/09 09:16:19;;;;;;;7.40;2.97;;;;;;;-146.27;57.18;47218.66;5070641;28;20024;-69
2024/01/09 09:18:45;;;;;;;4.50;2.17;;;;;;;-146.27;57.21;47224.63;5067699;28;20484;-68
2024/01/09 09:21:10;;;;;;;6.70;2.92;;;;;;;-146.27;56.75;47222.66;5050349;28;20025;-68
2024/01/09 09:23:36;;;;;;;4.90;2.33;;;;;;;-146.27;56.51;47206.72;5068165;28;20347;-67
2024/01/09 09:26:03;;;;;;;3.60;2.13;;;;;;;-146.27;55.98;47232.59;5070273;28;20035;-67
2024/01/09 09:28:28;;;;;;;3.72;2.08;;;;;;;-146.27;56.11;47228.63;5071094;28;20024;-70
2024/01/09 09:30:54;;;;;;;4.45;2.33;;;;;;;-146.27;56.61;47228.63;5070195;28;20486;-69
2024/01/09 09:33:20;;;;;;;7.13;2.33;;;;;;;-146.27;55.39;47236.59;5069503;28;20107;-67
2024/01/09 09:35:46;;;;;;;5.90;2.25;;;;;;;-146.27;55.37;47256.50;5069993;28;20075;-67
2024/01/09 09:38:11;;;;;;;4.22;2.38;;;;;;;-146.27;54.64;47252.50;5067281;28;20035;-67
2024/01/09 09:40:36;;;;;;;6.63;2.88;;;;;;;-146.27;54.57;47232.59;5070999;28;20138;-65
2024/01/09 09:43:04;;;;;;;6.80;2.30;;;;;;;-146.27;52.94;47272.44;5069707;28;20028;-69
2024/01/09 09:45:32;;;;;;;5.80;3.08;;;;;;;-146.27;52.92;47258.50;5069981;28;20020;-70
2024/01/09 09:48:00;;;;;;;5.13;2.75;;;;;;;-146.27;52.45;47296.31;5069841;28;20431;-70
2024/01/09 09:50:26;;;;;;;3.33;1.92;;;;;;;-146.27;51.99;47300.31;5070042;28;20028;-67
2024/01/09 09:52:52;;;;;;;4.32;2.42;;;;;;;-146.27;51.53;47274.41;5067892;28;20441;-68
2024/01/09 09:55:18;;;;;;;4.38;2.55;;;;;;;-146.27;50.87;47244.53;5068246;28;20051;-69
2024/01/09 09:57:44;;;;;;;5.30;2.55;;;;;;;-146.27;50.81;47276.41;5069086;28;20029;-70
2024/01/09 10:00:10;;;;;;;4.97;2.00;;;;;;;-146.27;50.00;47264.47;5069654;28;20087;-68
2024/01/09 10:02:51;;;;;;;4.65;2.28;;;;;;;-146.27;50.08;47260.47;5069767;28;20416;-68
2024/01/09 10:05:18;;;;;;;3.00;1.83;;;;;;;-146.27;48.98;47292.34;5058732;28;20385;-72
2024/01/09 10:07:49;;;;;;;5.88;2.50;;;;;;;-146.27;48.39;47276.41;5075990;28;20029;-69
2024/01/09 10:10:15;;;;;;;3.83;2.10;;;;;;;-146.27;47.74;47290.34;5082393;28;20028;-69
2024/01/09 10:12:41;;;;;;;4.50;2.38;;;;;;;-146.27;47.48;47272.44;5069276;28;20074;-68
2024/01/09 10:15:08;;;;;;;4.93;2.38;;;;;;;-146.27;46.86;47274.41;5068064;28;20082;-69
2024/01/09 10:17:34;;;;;;;4.60;2.17;;;;;;;-146.27;45.91;47316.22;5068633;28;20020;-68
2024/01/09 10:20:02;;;;;;;5.13;2.70;;;;;;;-146.27;46.04;47308.25;5070885;28;20028;-69
2024/01/09 10:22:31;;;;;;;6.18;2.53;;;;;;;-146.27;44.98;47316.22;5067972;28;20017;-69
2024/01/09 10:24:56;;;;;;;5.80;2.92;;;;;;;-146.27;44.70;47272.44;5066674;28;20020;-68
2024/01/09 10:27:22;;;;;;;3.47;1.95;;;;;;;-146.27;43.68;47324.19;5069272;28;20061;-68
2024/01/09 10:29:47;;;;;;;4.60;2.53;;;;;;;-146.27;43.62;47270.44;5066977;28;20068;-68
2024/01/09 10:32:19;;;;;;;4.03;2.30;;;;;;;-146.27;42.80;47316.22;5049457;28;20024;-68
2024/01/09 10:34:44;;;;;;;4.10;2.35;;;;;;;-146.27;41.70;47358.03;5057332;28;20029;-68
2024/01/09 10:37:12;;;;;;;4.15;2.38;;;;;;;-146.27;40.60;47320.22;5069347;28;20454;-69
2024/01/09 10:39:38;;;;;;;4.25;2.28;;;;;;;-146.27;40.43;47320.22;5069274;28;20059;-68
2024/01/09 10:42:09;;;;;;;4.60;2.08;;;;;;;-146.27;40.08;47310.25;5069278;28;20021;-68
2024/01/09 10:44:34;;;;;;;6.03;2.30;;;;;;;-146.27;39.19;47336.16;5068386;28;20021;-71
2024/01/09 10:47:01;;;;;;;7.80;2.42;;;;;;;-146.27;38.37;47377.97;5055204;28;20515;-69
2024/01/09 10:49:27;;;;;;;5.55;2.63;;;;;;;-146.27;38.23;47366.00;5068453;28;20056;-69
2024/01/09 10:51:55;;;;;;;4.05;2.33;;;;;;;-146.27;37.98;47358.03;5071826;28;20080;-69
2024/01/09 10:54:20;;;;;;;4.50;2.20;;;;;;;-146.27;37.41;47364.03;5090780;28;20424;-69
2024/01/09 10:56:48;;;;;;;5.03;2.60;;;;;;;-146.27;37.71;47346.09;5082137;28;20198;-68
2024/01/09 10:59:14;;;;;;;4.95;2.20;;;;;;;-146.27;37.12;47348.09;5054734;28;20108;-69
2024/01/09 11:01:40;;;;;;;3.92;2.28;;;;;;;-146.27;36.47;47360.03;5052751;28;20559;-69
2024/01/09 11:04:06;;;;;;;3.95;2.25;;;;;;;-146.27;35.39;47375.97;5069274;28;20104;-68
2024/01/09 11:06:36;;;;;;;3.88;2.40;;;;;;;-146.27;35.18;47387.91;5071696;28;20036;-69
2024/01/09 11:09:04;;;;;;;4.88;2.78;;;;;;;-146.27;34.82;47405.84;5078704;28;20035;-69
2024/01/09 11:11:34;;;;;;;4.72;2.33;;;;;;;-146.27;35.68;47401.84;5072556;28;20081;-69